sensor_id;sensor_type;location;lat;lon;timestamp;pressure;altitude;pressure_sealevel;temperature;humidity
44839;BME280;30576;42.098;24.876;2022-08-01T00:01:41;99294.22;;;24.27;47.77
44839;BME280;30576;42.098;24.876;2022-08-01T00:04:06;99323.81;;;24.52;47.00
44839;BME280;30576;42.098;24.876;2022-08-01T00:06:32;99328.91;;;24.32;47.55
44839;BME280;30576;42.098;24.876;2022-08-01T00:08:57;99323.09;;;24.14;47.82
44839;BME280;30576;42.098;24.876;2022-08-01T00:11:23;99317.25;;;24.20;47.81
44839;BME280;30576;42.098;24.876;2022-08-01T00:13:48;99310.03;;;24.21;47.54
44839;BME280;30576;42.098;24.876;2022-08-01T00:16:14;99317.25;;;24.20;47.59
44839;BME280;30576;42.098;24.876;2022-08-01T00:18:41;99300.22;;;24.08;47.74
44839;BME280;30576;42.098;24.876;2022-08-01T00:21:06;99288.78;;;24.05;47.54
44839;BME280;30576;42.098;24.876;2022-08-01T00:23:32;99301.94;;;24.21;47.30
44839;BME280;30576;42.098;24.876;2022-08-01T00:25:58;99293.94;;;24.08;47.25
44839;BME280;30576;42.098;24.876;2022-08-01T00:28:23;99312.13;;;24.28;47.10
44839;BME280;30576;42.098;24.876;2022-08-01T00:30:49;99298.72;;;24.16;47.01
44839;BME280;30576;42.098;24.876;2022-08-01T00:33:14;99309.06;;;24.44;46.69
44839;BME280;30576;42.098;24.876;2022-08-01T00:35:40;99302.69;;;24.23;46.81
44839;BME280;30576;42.098;24.876;2022-08-01T00:38:05;99306.50;;;24.31;46.36
44839;BME280;30576;42.098;24.876;2022-08-01T00:40:31;99299.75;;;24.37;46.47
44839;BME280;30576;42.098;24.876;2022-08-01T00:42:56;99309.06;;;24.44;46.01
44839;BME280;30576;42.098;24.876;2022-08-01T00:45:22;99326.09;;;24.34;46.38
44839;BME280;30576;42.098;24.876;2022-08-01T00:47:47;99318.63;;;24.37;46.48
44839;BME280;30576;42.098;24.876;2022-08-01T00:50:13;99325.38;;;24.43;46.54
44839;BME280;30576;42.098;24.876;2022-08-01T00:52:39;99294.84;;;24.31;46.55
44839;BME280;30576;42.098;24.876;2022-08-01T00:55:05;99307.34;;;24.21;46.40
44839;BME280;30576;42.098;24.876;2022-08-01T00:57:31;99312.38;;;24.25;46.78
44839;BME280;30576;42.098;24.876;2022-08-01T00:59:57;99318.84;;;24.11;46.60
44839;BME280;30576;42.098;24.876;2022-08-01T01:02:23;99315.66;;;24.18;46.25
44839;BME280;30576;42.098;24.876;2022-08-01T01:04:48;99319.19;;;24.07;46.27
44839;BME280;30576;42.098;24.876;2022-08-01T01:07:19;99321.41;;;24.13;46.58
44839;BME280;30576;42.098;24.876;2022-08-01T01:10:03;99312.91;;;24.06;46.22
44839;BME280;30576;42.098;24.876;2022-08-01T01:15:17;99315.59;;;23.95;46.68
44839;BME280;30576;42.098;24.876;2022-08-01T01:18:01;99305.63;;;23.60;47.43
44839;BME280;30576;42.098;24.876;2022-08-01T01:20:32;99324.19;;;23.76;47.06
44839;BME280;30576;42.098;24.876;2022-08-01T01:30:51;99304.84;;;23.47;47.61
44839;BME280;30576;42.098;24.876;2022-08-01T01:33:19;99301.38;;;23.45;47.47
44839;BME280;30576;42.098;24.876;2022-08-01T01:35:48;99312.00;;;23.35;47.76
44839;BME280;30576;42.098;24.876;2022-08-01T01:38:21;99318.53;;;23.44;47.61
44839;BME280;30576;42.098;24.876;2022-08-01T01:40:49;99318.28;;;23.22;48.24
44839;BME280;30576;42.098;24.876;2022-08-01T01:43:17;99316.53;;;23.21;47.92
44839;BME280;30576;42.098;24.876;2022-08-01T01:45:45;99305.78;;;23.21;48.12
44839;BME280;30576;42.098;24.876;2022-08-01T01:48:18;99316.16;;;23.15;48.38
44839;BME280;30576;42.098;24.876;2022-08-01T01:50:46;99301.59;;;23.04;48.39
44839;BME280;30576;42.098;24.876;2022-08-01T01:53:13;99318.31;;;23.10;48.46
44839;BME280;30576;42.098;24.876;2022-08-01T01:55:41;99296.38;;;22.90;48.57
44839;BME280;30576;42.098;24.876;2022-08-01T01:58:09;99311.75;;;23.01;48.88
44839;BME280;30576;42.098;24.876;2022-08-01T02:00:37;99299.13;;;22.77;49.37
44839;BME280;30576;42.098;24.876;2022-08-01T02:03:05;99312.97;;;22.84;49.36
44839;BME280;30576;42.098;24.876;2022-08-01T02:05:33;99313.16;;;22.94;49.19
44839;BME280;30576;42.098;24.876;2022-08-01T02:08:02;99333.50;;;22.85;49.58
44839;BME280;30576;42.098;24.876;2022-08-01T02:10:31;99307.59;;;22.58;49.70
44839;BME280;30576;42.098;24.876;2022-08-01T02:13:02;99325.56;;;22.83;49.30
44839;BME280;30576;42.098;24.876;2022-08-01T02:15:31;99334.03;;;22.90;49.52
44839;BME280;30576;42.098;24.876;2022-08-01T02:17:59;99319.31;;;22.83;49.69
44839;BME280;30576;42.098;24.876;2022-08-01T02:20:29;99334.16;;;22.88;49.45
44839;BME280;30576;42.098;24.876;2022-08-01T02:23:04;99321.88;;;22.84;49.63
44839;BME280;30576;42.098;24.876;2022-08-01T02:25:36;99329.59;;;23.02;49.00
44839;BME280;30576;42.098;24.876;2022-08-01T02:28:35;99334.53;;;23.08;48.57
44839;BME280;30576;42.098;24.876;2022-08-01T02:31:03;99325.41;;;22.98;48.88
44839;BME280;30576;42.098;24.876;2022-08-01T02:33:36;99333.25;;;23.14;48.59
44839;BME280;30576;42.098;24.876;2022-08-01T02:36:02;99311.44;;;22.93;48.73
44839;BME280;30576;42.098;24.876;2022-08-01T02:38:31;99329.28;;;23.06;48.67
44839;BME280;30576;42.098;24.876;2022-08-01T02:41:00;99329.38;;;23.05;48.32
44839;BME280;30576;42.098;24.876;2022-08-01T02:43:30;99313.25;;;23.05;48.54
44839;BME280;30576;42.098;24.876;2022-08-01T02:46:00;99326.25;;;22.98;48.56
44839;BME280;30576;42.098;24.876;2022-08-01T02:48:30;99325.94;;;23.03;48.25
44839;BME280;30576;42.098;24.876;2022-08-01T02:51:01;99309.38;;;22.96;48.01
44839;BME280;30576;42.098;24.876;2022-08-01T02:53:30;99320.31;;;23.06;47.89
44839;BME280;30576;42.098;24.876;2022-08-01T02:55:57;99312.81;;;22.98;48.07
44839;BME280;30576;42.098;24.876;2022-08-01T02:58:24;99313.38;;;22.91;48.41
44839;BME280;30576;42.098;24.876;2022-08-01T03:00:51;99310.06;;;22.87;48.04
44839;BME280;30576;42.098;24.876;2022-08-01T03:03:17;99302.31;;;22.82;47.92
44839;BME280;30576;42.098;24.876;2022-08-01T03:05:44;99309.88;;;22.77;48.33
44839;BME280;30576;42.098;24.876;2022-08-01T03:08:12;99306.53;;;22.74;48.16
44839;BME280;30576;42.098;24.876;2022-08-01T03:10:41;99316.09;;;22.78;48.10
44839;BME280;30576;42.098;24.876;2022-08-01T03:13:09;99321.31;;;22.92;47.89
44839;BME280;30576;42.098;24.876;2022-08-01T03:15:37;99302.44;;;22.81;47.67
44839;BME280;30576;42.098;24.876;2022-08-01T03:18:05;99316.31;;;22.75;47.63
44839;BME280;30576;42.098;24.876;2022-08-01T03:20:34;99289.56;;;22.60;47.68
44839;BME280;30576;42.098;24.876;2022-08-01T03:23:04;99326.31;;;22.73;47.40
44839;BME280;30576;42.098;24.876;2022-08-01T03:25:31;99288.72;;;22.47;47.42
44839;BME280;30576;42.098;24.876;2022-08-01T03:27:59;99304.06;;;22.58;47.68
44839;BME280;30576;42.098;24.876;2022-08-01T03:30:27;99324.94;;;22.54;47.91
44839;BME280;30576;42.098;24.876;2022-08-01T03:32:53;99320.31;;;22.56;47.56
44839;BME280;30576;42.098;24.876;2022-08-01T03:35:22;99325.06;;;22.52;47.42
44839;BME280;30576;42.098;24.876;2022-08-01T03:37:52;99303.84;;;22.22;47.80
44839;BME280;30576;42.098;24.876;2022-08-01T03:40:24;99321.91;;;22.46;47.77
44839;BME280;30576;42.098;24.876;2022-08-01T03:42:58;99308.25;;;22.49;47.53
44839;BME280;30576;42.098;24.876;2022-08-01T03:45:35;99319.13;;;22.60;46.85
44839;BME280;30576;42.098;24.876;2022-08-01T03:48:06;99318.59;;;22.55;47.30
44839;BME280;30576;42.098;24.876;2022-08-01T03:50:35;99324.41;;;22.62;47.09
44839;BME280;30576;42.098;24.876;2022-08-01T03:53:03;99321.38;;;22.53;47.45
44839;BME280;30576;42.098;24.876;2022-08-01T03:55:30;99311.81;;;22.62;47.36
44839;BME280;30576;42.098;24.876;2022-08-01T03:57:58;99325.47;;;22.59;47.43
44839;BME280;30576;42.098;24.876;2022-08-01T04:00:25;99292.38;;;22.59;47.27
44839;BME280;30576;42.098;24.876;2022-08-01T04:02:51;99308.03;;;22.78;47.26
44839;BME280;30576;42.098;24.876;2022-08-01T04:05:17;99295.44;;;22.91;47.64
44839;BME280;30576;42.098;24.876;2022-08-01T04:07:48;99311.56;;;22.91;47.18
44839;BME280;30576;42.098;24.876;2022-08-01T04:10:20;99304.34;;;22.92;47.20
44839;BME280;30576;42.098;24.876;2022-08-01T04:12:45;99321.53;;;22.89;47.42
44839;BME280;30576;42.098;24.876;2022-08-01T04:15:11;99318.13;;;22.87;47.53
44839;BME280;30576;42.098;24.876;2022-08-01T04:17:36;99316.16;;;23.02;47.12
44839;BME280;30576;42.098;24.876;2022-08-01T04:20:02;99312.69;;;23.00;47.48
44839;BME280;30576;42.098;24.876;2022-08-01T04:22:28;99325.19;;;23.01;47.34
44839;BME280;30576;42.098;24.876;2022-08-01T04:24:57;99308.44;;;22.97;47.15
44839;BME280;30576;42.098;24.876;2022-08-01T04:27:28;99327.25;;;23.10;46.93
44839;BME280;30576;42.098;24.876;2022-08-01T04:29:56;99332.25;;;23.28;45.93
44839;BME280;30576;42.098;24.876;2022-08-01T04:32:25;99320.41;;;23.30;45.64
44839;BME280;30576;42.098;24.876;2022-08-01T04:34:53;99311.50;;;23.17;45.47
44839;BME280;30576;42.098;24.876;2022-08-01T04:37:22;99324.03;;;23.42;45.29
44839;BME280;30576;42.098;24.876;2022-08-01T04:39:48;99332.38;;;23.50;44.69
44839;BME280;30576;42.098;24.876;2022-08-01T04:42:16;99315.38;;;23.50;44.87
44839;BME280;30576;42.098;24.876;2022-08-01T04:44:42;99330.19;;;23.80;44.38
44839;BME280;30576;42.098;24.876;2022-08-01T04:47:08;99333.19;;;23.88;43.74
44839;BME280;30576;42.098;24.876;2022-08-01T04:49:34;99326.63;;;24.03;43.24
44839;BME280;30576;42.098;24.876;2022-08-01T04:52:00;99326.59;;;23.92;43.07
44839;BME280;30576;42.098;24.876;2022-08-01T04:54:27;99336.19;;;24.07;43.43
44839;BME280;30576;42.098;24.876;2022-08-01T04:56:54;99324.09;;;24.13;42.97
44839;BME280;30576;42.098;24.876;2022-08-01T04:59:37;99320.66;;;24.11;42.10
44839;BME280;30576;42.098;24.876;2022-08-01T05:02:13;99324.94;;;24.02;41.67
44839;BME280;30576;42.098;24.876;2022-08-01T05:04:40;99328.44;;;24.38;42.06
44839;BME280;30576;42.098;24.876;2022-08-01T05:07:06;99317.94;;;24.11;41.53
44839;BME280;30576;42.098;24.876;2022-08-01T05:09:32;99311.25;;;24.28;41.17
44839;BME280;30576;42.098;24.876;2022-08-01T05:11:59;99323.50;;;24.32;40.64
44839;BME280;30576;42.098;24.876;2022-08-01T05:14:27;99311.66;;;24.46;40.76
44839;BME280;30576;42.098;24.876;2022-08-01T05:16:53;99282.84;;;24.46;40.06
44839;BME280;30576;42.098;24.876;2022-08-01T05:19:20;99306.56;;;24.65;39.38
44839;BME280;30576;42.098;24.876;2022-08-01T05:21:46;99286.56;;;24.79;39.09
44839;BME280;30576;42.098;24.876;2022-08-01T05:24:12;99300.00;;;25.02;38.99
44839;BME280;30576;42.098;24.876;2022-08-01T05:26:38;99299.66;;;24.95;38.75
44839;BME280;30576;42.098;24.876;2022-08-01T05:29:04;99298.91;;;25.05;39.31
44839;BME280;30576;42.098;24.876;2022-08-01T05:31:29;99312.50;;;25.14;38.40
44839;BME280;30576;42.098;24.876;2022-08-01T05:33:55;99317.41;;;25.20;38.54
44839;BME280;30576;42.098;24.876;2022-08-01T05:36:20;99311.78;;;25.12;38.41
44839;BME280;30576;42.098;24.876;2022-08-01T05:38:46;99315.72;;;25.31;37.20
44839;BME280;30576;42.098;24.876;2022-08-01T05:41:11;99320.84;;;25.11;36.88
44839;BME280;30576;42.098;24.876;2022-08-01T05:43:37;99319.88;;;25.35;36.52
44839;BME280;30576;42.098;24.876;2022-08-01T05:46:02;99316.69;;;25.30;36.00
44839;BME280;30576;42.098;24.876;2022-08-01T05:48:28;99299.69;;;25.50;35.92
44839;BME280;30576;42.098;24.876;2022-08-01T05:50:54;99317.31;;;25.66;35.63
44839;BME280;30576;42.098;24.876;2022-08-01T05:53:20;99315.94;;;25.71;35.68
44839;BME280;30576;42.098;24.876;2022-08-01T05:55:45;99324.13;;;25.81;34.60
44839;BME280;30576;42.098;24.876;2022-08-01T05:58:11;99326.84;;;25.81;34.52
44839;BME280;30576;42.098;24.876;2022-08-01T06:00:36;99322.66;;;26.09;34.99
44839;BME280;30576;42.098;24.876;2022-08-01T06:03:02;99322.06;;;26.27;34.88
44839;BME280;30576;42.098;24.876;2022-08-01T06:05:27;99320.06;;;26.50;35.24
44839;BME280;30576;42.098;24.876;2022-08-01T06:07:53;99282.84;;;26.33;34.33
44839;BME280;30576;42.098;24.876;2022-08-01T06:10:19;99293.06;;;26.60;34.27
44839;BME280;30576;42.098;24.876;2022-08-01T06:12:44;99311.28;;;26.89;34.29
44839;BME280;30576;42.098;24.876;2022-08-01T06:15:10;99304.66;;;27.03;33.09
44839;BME280;30576;42.098;24.876;2022-08-01T06:17:36;99294.53;;;27.05;32.50
44839;BME280;30576;42.098;24.876;2022-08-01T06:20:02;99309.50;;;27.09;31.46
44839;BME280;30576;42.098;24.876;2022-08-01T06:22:27;99304.16;;;27.28;32.63
44839;BME280;30576;42.098;24.876;2022-08-01T06:24:53;99305.78;;;27.41;31.27
44839;BME280;30576;42.098;24.876;2022-08-01T06:27:19;99283.41;;;26.88;31.11
44839;BME280;30576;42.098;24.876;2022-08-01T06:29:44;99292.44;;;27.18;30.75
44839;BME280;30576;42.098;24.876;2022-08-01T06:32:10;99289.81;;;27.47;30.83
44839;BME280;30576;42.098;24.876;2022-08-01T06:34:35;99309.06;;;27.74;31.31
44839;BME280;30576;42.098;24.876;2022-08-01T06:37:01;99289.66;;;27.49;31.04
44839;BME280;30576;42.098;24.876;2022-08-01T06:39:26;99291.78;;;27.65;30.69
44839;BME280;30576;42.098;24.876;2022-08-01T06:41:52;99295.53;;;27.64;30.11
44839;BME280;30576;42.098;24.876;2022-08-01T06:44:18;99289.81;;;27.77;29.53
44839;BME280;30576;42.098;24.876;2022-08-01T06:46:43;99291.50;;;27.87;28.12
44839;BME280;30576;42.098;24.876;2022-08-01T06:49:09;99292.34;;;27.88;29.29
44839;BME280;30576;42.098;24.876;2022-08-01T06:51:34;99293.66;;;27.84;28.89
44839;BME280;30576;42.098;24.876;2022-08-01T06:54:00;99293.09;;;27.90;29.12
44839;BME280;30576;42.098;24.876;2022-08-01T06:56:25;99286.94;;;28.17;28.34
44839;BME280;30576;42.098;24.876;2022-08-01T06:58:51;99275.81;;;27.91;27.77
44839;BME280;30576;42.098;24.876;2022-08-01T07:01:16;99278.78;;;28.27;28.24
44839;BME280;30576;42.098;24.876;2022-08-01T07:03:42;99297.09;;;27.96;28.72
44839;BME280;30576;42.098;24.876;2022-08-01T07:06:07;99283.38;;;27.87;28.91
44839;BME280;30576;42.098;24.876;2022-08-01T07:08:33;99286.78;;;28.29;29.61
44839;BME280;30576;42.098;24.876;2022-08-01T07:10:58;99265.44;;;28.44;28.58
44839;BME280;30576;42.098;24.876;2022-08-01T07:13:25;99274.75;;;28.31;28.59
44839;BME280;30576;42.098;24.876;2022-08-01T07:15:51;99291.13;;;28.97;27.96
44839;BME280;30576;42.098;24.876;2022-08-01T07:18:18;99289.75;;;28.83;29.36
44839;BME280;30576;42.098;24.876;2022-08-01T07:20:43;99279.44;;;29.14;28.87
44839;BME280;30576;42.098;24.876;2022-08-01T07:23:11;99290.97;;;29.16;28.22
44839;BME280;30576;42.098;24.876;2022-08-01T07:25:37;99264.00;;;28.87;28.43
44839;BME280;30576;42.098;24.876;2022-08-01T07:28:03;99271.53;;;28.93;28.47
44839;BME280;30576;42.098;24.876;2022-08-01T07:30:28;99262.56;;;28.92;28.75
44839;BME280;30576;42.098;24.876;2022-08-01T07:32:54;99269.59;;;28.85;28.35
44839;BME280;30576;42.098;24.876;2022-08-01T07:35:19;99264.66;;;28.71;29.11
44839;BME280;30576;42.098;24.876;2022-08-01T07:37:45;99249.94;;;28.73;28.47
44839;BME280;30576;42.098;24.876;2022-08-01T07:40:10;99257.72;;;28.86;28.17
44839;BME280;30576;42.098;24.876;2022-08-01T07:42:36;99275.38;;;29.00;28.51
44839;BME280;30576;42.098;24.876;2022-08-01T07:45:02;99271.34;;;29.32;28.09
44839;BME280;30576;42.098;24.876;2022-08-01T07:47:27;99246.03;;;29.32;27.76
44839;BME280;30576;42.098;24.876;2022-08-01T07:49:59;99242.78;;;29.28;28.98
44839;BME280;30576;42.098;24.876;2022-08-01T07:52:25;99256.69;;;29.43;28.72
44839;BME280;30576;42.098;24.876;2022-08-01T07:54:52;99254.19;;;29.50;28.30
44839;BME280;30576;42.098;24.876;2022-08-01T07:57:17;99230.91;;;29.47;27.62
44839;BME280;30576;42.098;24.876;2022-08-01T07:59:43;99238.69;;;29.60;27.62
44839;BME280;30576;42.098;24.876;2022-08-01T08:02:09;99241.38;;;29.42;27.40
44839;BME280;30576;42.098;24.876;2022-08-01T08:04:34;99226.56;;;29.36;27.88
44839;BME280;30576;42.098;24.876;2022-08-01T08:06:59;99234.47;;;29.84;29.71
44839;BME280;30576;42.098;24.876;2022-08-01T08:09:25;99230.75;;;29.67;27.17
44839;BME280;30576;42.098;24.876;2022-08-01T08:11:51;99239.19;;;29.45;26.76
44839;BME280;30576;42.098;24.876;2022-08-01T08:14:17;99216.25;;;28.94;28.00
44839;BME280;30576;42.098;24.876;2022-08-01T08:16:44;99237.81;;;29.23;27.89
44839;BME280;30576;42.098;24.876;2022-08-01T08:19:10;99230.75;;;29.49;27.58
44839;BME280;30576;42.098;24.876;2022-08-01T08:21:36;99225.09;;;29.60;27.72
44839;BME280;30576;42.098;24.876;2022-08-01T08:24:02;99234.22;;;29.77;26.93
44839;BME280;30576;42.098;24.876;2022-08-01T08:26:51;99243.16;;;29.69;28.25
44839;BME280;30576;42.098;24.876;2022-08-01T08:29:19;99221.88;;;29.82;27.27
44839;BME280;30576;42.098;24.876;2022-08-01T08:31:44;99220.03;;;30.09;27.52
44839;BME280;30576;42.098;24.876;2022-08-01T08:34:10;99224.41;;;30.28;25.93
44839;BME280;30576;42.098;24.876;2022-08-01T08:36:36;99249.06;;;29.82;27.08
44839;BME280;30576;42.098;24.876;2022-08-01T08:39:03;99208.72;;;29.78;27.72
44839;BME280;30576;42.098;24.876;2022-08-01T08:41:30;99221.00;;;30.00;28.71
44839;BME280;30576;42.098;24.876;2022-08-01T08:43:56;99199.00;;;30.20;26.98
44839;BME280;30576;42.098;24.876;2022-08-01T08:46:23;99226.44;;;30.26;26.82
44839;BME280;30576;42.098;24.876;2022-08-01T08:48:51;99227.75;;;29.96;26.05
44839;BME280;30576;42.098;24.876;2022-08-01T08:51:17;99210.38;;;29.89;26.45
44839;BME280;30576;42.098;24.876;2022-08-01T08:53:44;99204.22;;;30.05;26.43
44839;BME280;30576;42.098;24.876;2022-08-01T08:56:14;99195.78;;;29.90;26.35
44839;BME280;30576;42.098;24.876;2022-08-01T08:58:46;99196.94;;;30.40;27.53
44839;BME280;30576;42.098;24.876;2022-08-01T09:01:12;99204.44;;;30.46;26.42
44839;BME280;30576;42.098;24.876;2022-08-01T09:03:39;99217.66;;;30.06;27.17
44839;BME280;30576;42.098;24.876;2022-08-01T09:06:05;99210.38;;;29.89;27.32
44839;BME280;30576;42.098;24.876;2022-08-01T09:08:30;99187.13;;;30.21;26.45
44839;BME280;30576;42.098;24.876;2022-08-01T09:10:56;99214.50;;;30.53;27.76
44839;BME280;30576;42.098;24.876;2022-08-01T09:13:22;99213.88;;;30.33;26.91
44839;BME280;30576;42.098;24.876;2022-08-01T09:15:52;99205.00;;;30.49;27.37
44839;BME280;30576;42.098;24.876;2022-08-01T09:18:37;99211.56;;;30.12;27.73
44839;BME280;30576;42.098;24.876;2022-08-01T09:21:16;99205.41;;;30.10;27.06
44839;BME280;30576;42.098;24.876;2022-08-01T09:23:50;99200.91;;;30.27;28.25
44839;BME280;30576;42.098;24.876;2022-08-01T09:26:18;99170.38;;;30.68;27.09
44839;BME280;30576;42.098;24.876;2022-08-01T09:28:46;99176.47;;;30.62;27.66
44839;BME280;30576;42.098;24.876;2022-08-01T09:31:17;99187.53;;;30.68;26.03
44839;BME280;30576;42.098;24.876;2022-08-01T09:33:50;99181.75;;;30.63;27.13
44839;BME280;30576;42.098;24.876;2022-08-01T09:36:17;99188.53;;;30.59;27.55
44839;BME280;30576;42.098;24.876;2022-08-01T09:38:43;99168.06;;;30.47;27.65
44839;BME280;30576;42.098;24.876;2022-08-01T09:41:09;99194.16;;;30.66;26.95
44839;BME280;30576;42.098;24.876;2022-08-01T09:43:36;99181.41;;;30.32;27.26
44839;BME280;30576;42.098;24.876;2022-08-01T09:46:20;99184.22;;;30.14;27.18
44839;BME280;30576;42.098;24.876;2022-08-01T09:49:03;99176.06;;;30.14;27.22
44839;BME280;30576;42.098;24.876;2022-08-01T09:51:37;99175.03;;;30.15;27.51
44839;BME280;30576;42.098;24.876;2022-08-01T09:54:04;99170.97;;;30.45;27.45
44839;BME280;30576;42.098;24.876;2022-08-01T09:56:38;99176.25;;;30.55;26.92
44839;BME280;30576;42.098;24.876;2022-08-01T09:59:04;99155.31;;;30.13;28.46
44839;BME280;30576;42.098;24.876;2022-08-01T10:01:45;99177.72;;;30.76;27.54
44839;BME280;30576;42.098;24.876;2022-08-01T10:04:16;99161.56;;;30.91;27.52
44839;BME280;30576;42.098;24.876;2022-08-01T10:06:45;99145.06;;;30.84;27.16
44839;BME280;30576;42.098;24.876;2022-08-01T10:09:13;99161.16;;;30.61;27.42
44839;BME280;30576;42.098;24.876;2022-08-01T10:11:41;99155.38;;;30.64;27.50
44839;BME280;30576;42.098;24.876;2022-08-01T10:14:07;99180.34;;;31.10;27.22
44839;BME280;30576;42.098;24.876;2022-08-01T10:16:34;99165.94;;;30.67;27.08
44839;BME280;30576;42.098;24.876;2022-08-01T10:19:02;99154.75;;;30.86;29.03
44839;BME280;30576;42.098;24.876;2022-08-01T10:21:28;99178.31;;;31.37;27.20
44839;BME280;30576;42.098;24.876;2022-08-01T10:23:58;99158.75;;;31.00;28.02
44839;BME280;30576;42.098;24.876;2022-08-01T10:26:25;99152.63;;;31.06;26.65
44839;BME280;30576;42.098;24.876;2022-08-01T10:28:52;99180.34;;;31.18;27.02
44839;BME280;30576;42.098;24.876;2022-08-01T10:31:19;99178.22;;;30.87;27.37
44839;BME280;30576;42.098;24.876;2022-08-01T10:33:44;99140.44;;;30.76;27.92
44839;BME280;30576;42.098;24.876;2022-08-01T10:36:11;99146.00;;;31.17;26.79
44839;BME280;30576;42.098;24.876;2022-08-01T10:38:36;99162.00;;;31.62;27.59
44839;BME280;30576;42.098;24.876;2022-08-01T10:41:03;99162.66;;;31.31;27.11
44839;BME280;30576;42.098;24.876;2022-08-01T10:43:30;99173.91;;;31.36;26.72
44839;BME280;30576;42.098;24.876;2022-08-01T10:45:56;99169.31;;;31.45;28.24
44839;BME280;30576;42.098;24.876;2022-08-01T10:48:32;99165.22;;;31.24;26.12
44839;BME280;30576;42.098;24.876;2022-08-01T10:51:02;99164.72;;;31.20;26.54
44839;BME280;30576;42.098;24.876;2022-08-01T10:53:29;99150.34;;;30.94;26.47
44839;BME280;30576;42.098;24.876;2022-08-01T10:58:33;99167.28;;;31.30;28.72
44839;BME280;30576;42.098;24.876;2022-08-01T11:01:23;99162.00;;;31.20;26.63
44839;BME280;30576;42.098;24.876;2022-08-01T11:04:11;99144.41;;;30.98;26.85
44839;BME280;30576;42.098;24.876;2022-08-01T11:06:46;99167.78;;;31.17;27.63
44839;BME280;30576;42.098;24.876;2022-08-01T11:14:25;99156.38;;;31.80;27.21
44839;BME280;30576;42.098;24.876;2022-08-01T11:16:51;99141.88;;;31.87;27.14
44839;BME280;30576;42.098;24.876;2022-08-01T11:19:17;99128.28;;;31.38;27.58
44839;BME280;30576;42.098;24.876;2022-08-01T11:29:43;99136.78;;;31.84;27.79
44839;BME280;30576;42.098;24.876;2022-08-01T11:32:25;99134.91;;;31.68;27.22
44839;BME280;30576;42.098;24.876;2022-08-01T11:34:52;99139.16;;;31.87;26.54
44839;BME280;30576;42.098;24.876;2022-08-01T11:37:26;99137.09;;;31.73;26.98
44839;BME280;30576;42.098;24.876;2022-08-01T11:42:40;99146.31;;;31.80;25.67
44839;BME280;30576;42.098;24.876;2022-08-01T11:45:06;99137.31;;;31.55;27.12
44839;BME280;30576;42.098;24.876;2022-08-01T11:47:48;99144.59;;;31.87;26.16
44839;BME280;30576;42.098;24.876;2022-08-01T11:50:40;99136.22;;;31.97;27.05
44839;BME280;30576;42.098;24.876;2022-08-01T11:53:07;99120.72;;;31.89;26.58
44839;BME280;30576;42.098;24.876;2022-08-01T11:55:33;99123.06;;;32.01;25.77
44839;BME280;30576;42.098;24.876;2022-08-01T11:58:06;99126.88;;;31.83;25.79
44839;BME280;30576;42.098;24.876;2022-08-01T12:00:33;99111.00;;;31.95;26.29
44839;BME280;30576;42.098;24.876;2022-08-01T12:03:01;99129.72;;;32.06;25.97
44839;BME280;30576;42.098;24.876;2022-08-01T12:05:28;99113.16;;;32.16;26.04
44839;BME280;30576;42.098;24.876;2022-08-01T12:07:55;99101.03;;;31.63;26.24
44839;BME280;30576;42.098;24.876;2022-08-01T12:10:30;99110.81;;;31.97;26.44
44839;BME280;30576;42.098;24.876;2022-08-01T12:13:02;99102.50;;;32.38;25.90
44839;BME280;30576;42.098;24.876;2022-08-01T12:15:34;99115.19;;;32.22;25.49
44839;BME280;30576;42.098;24.876;2022-08-01T12:18:03;99095.34;;;31.89;26.88
44839;BME280;30576;42.098;24.876;2022-08-01T12:20:37;99109.59;;;32.16;26.33
44839;BME280;30576;42.098;24.876;2022-08-01T12:23:05;99085.34;;;32.21;25.71
44839;BME280;30576;42.098;24.876;2022-08-01T12:25:32;99079.41;;;32.48;26.15
44839;BME280;30576;42.098;24.876;2022-08-01T12:28:04;99094.72;;;32.58;24.64
44839;BME280;30576;42.098;24.876;2022-08-01T12:30:30;99102.00;;;32.74;25.47
44839;BME280;30576;42.098;24.876;2022-08-01T12:32:56;99095.59;;;32.50;23.96
44839;BME280;30576;42.098;24.876;2022-08-01T12:35:26;99080.91;;;32.28;25.50
44839;BME280;30576;42.098;24.876;2022-08-01T12:37:54;99100.03;;;32.20;25.79
44839;BME280;30576;42.098;24.876;2022-08-01T12:40:27;99077.41;;;32.42;25.54
44839;BME280;30576;42.098;24.876;2022-08-01T13:19:05;99062.50;;;32.84;25.50
44839;BME280;30576;42.098;24.876;2022-08-01T13:21:31;99078.50;;;33.11;26.86
44839;BME280;30576;42.098;24.876;2022-08-01T13:24:07;99071.34;;;33.10;25.46
44839;BME280;30576;42.098;24.876;2022-08-01T13:26:51;99071.59;;;32.77;26.58
44839;BME280;30576;42.098;24.876;2022-08-01T13:29:22;99063.09;;;32.95;24.93
44839;BME280;30576;42.098;24.876;2022-08-01T13:31:53;99078.72;;;32.86;25.53
44839;BME280;30576;42.098;24.876;2022-08-01T13:34:29;99067.09;;;32.84;25.09
44839;BME280;30576;42.098;24.876;2022-08-01T13:36:55;99068.53;;;32.72;24.76
44839;BME280;30576;42.098;24.876;2022-08-01T13:39:21;99071.59;;;32.77;25.67
44839;BME280;30576;42.098;24.876;2022-08-01T13:42:05;99050.16;;;32.65;25.20
44839;BME280;30576;42.098;24.876;2022-08-01T13:44:30;99045.41;;;32.59;25.78
44839;BME280;30576;42.098;24.876;2022-08-01T13:46:56;99049.06;;;32.75;25.10
44839;BME280;30576;42.098;24.876;2022-08-01T13:49:21;99057.22;;;33.06;25.06
44839;BME280;30576;42.098;24.876;2022-08-01T13:51:47;99033.84;;;32.80;23.59
44839;BME280;30576;42.098;24.876;2022-08-01T13:54:15;99036.75;;;32.79;25.69
44839;BME280;30576;42.098;24.876;2022-08-01T13:56:41;99050.53;;;32.86;24.86
44839;BME280;30576;42.098;24.876;2022-08-01T13:59:06;99042.69;;;33.06;25.42
44839;BME280;30576;42.098;24.876;2022-08-01T14:01:33;99055.75;;;33.18;24.44